createdAt,value
2023-02-06T10:36:14.906Z,6.45
2023-02-06T10:39:06.007Z,6.72
2023-02-06T10:41:58.184Z,6.05
2023-02-06T10:44:34.797Z,5.97
2023-02-06T10:47:02.239Z,5.47
2023-02-06T10:49:43.489Z,4.50
2023-02-06T10:52:27.581Z,4.82
2023-02-06T10:54:58.661Z,5.32
2023-02-06T10:57:28.591Z,6.15
2023-02-06T11:00:02.341Z,6.28
2023-02-06T11:02:41.584Z,7.50
2023-02-06T11:05:21.612Z,7.90
2023-02-06T11:08:36.008Z,7.57
2023-02-06T11:11:30.391Z,8.15
2023-02-06T11:14:28.465Z,7.45
2023-02-06T11:16:59.533Z,7.63
2023-02-06T11:19:35.852Z,6.40
2023-02-06T11:22:13.174Z,7.95
2023-02-06T11:24:59.783Z,8.90
2023-02-06T11:27:27.488Z,7.72
2023-02-06T11:29:54.930Z,9.20
2023-02-06T11:32:30.404Z,10.43
2023-02-06T11:35:00.933Z,15.45
2023-02-06T11:37:40.790Z,12.68
2023-02-06T11:40:20.055Z,8.93
2023-02-06T11:42:49.297Z,8.85
2023-02-06T11:45:29.764Z,10.65
2023-02-06T11:47:57.477Z,12.27
2023-02-06T11:50:24.463Z,11.38
2023-02-06T11:52:59.181Z,10.63
2023-02-06T11:55:29.989Z,9.20
2023-02-06T11:58:13.693Z,8.80
2023-02-06T12:00:52.583Z,7.32
2023-02-06T12:03:30.865Z,7.95
2023-02-06T12:06:05.558Z,6.72
2023-02-06T12:08:54.176Z,8.10
2023-02-06T12:11:34.609Z,8.98
2023-02-06T12:14:09.294Z,6.53
2023-02-06T12:16:39.630Z,7.30
2023-02-06T12:19:12.254Z,8.13
2023-02-06T12:24:39.703Z,6.57
2023-02-06T12:27:15.314Z,6.47
2023-02-06T12:29:56.311Z,8.00
2023-02-06T12:32:38.770Z,6.85
2023-02-06T12:35:31.049Z,7.43
2023-02-06T12:38:05.027Z,6.50
2023-02-06T12:40:48.337Z,10.65
2023-02-06T12:43:17.069Z,6.45
2023-02-06T12:45:50.530Z,7.20
2023-02-06T12:48:36.141Z,7.03
2023-02-06T12:51:06.067Z,6.47
2023-02-06T12:53:44.399Z,6.63
2023-02-06T12:56:37.705Z,6.20
2023-02-06T12:59:10.372Z,7.15
2023-02-06T13:04:23.786Z,5.78
2023-02-06T13:07:07.935Z,6.45
2023-02-06T13:09:41.722Z,6.30
2023-02-06T13:12:24.040Z,5.18
2023-02-06T13:15:07.370Z,5.35
2023-02-06T13:17:37.145Z,6.55
2023-02-06T13:20:10.212Z,6.25
2023-02-06T13:23:12.686Z,6.43
2023-02-06T13:25:39.547Z,6.33
2023-02-06T13:28:21.762Z,6.90
2023-02-06T13:30:50.813Z,6.55
2023-02-06T13:33:25.335Z,6.10
2023-02-06T13:35:58.110Z,7.43
2023-02-06T13:38:34.111Z,6.25
2023-02-06T13:41:15.722Z,7.05
2023-02-06T13:43:42.512Z,6.72
2023-02-06T13:46:14.330Z,6.32
2023-02-06T13:49:05.487Z,6.25
2023-02-06T13:51:35.408Z,5.60
2023-02-06T13:54:25.289Z,6.35
2023-02-06T13:57:24.503Z,6.57
2023-02-06T13:59:56.670Z,5.13
2023-02-06T14:02:34.994Z,5.28
2023-02-06T14:05:05.181Z,4.80
2023-02-06T14:07:48.154Z,4.88
2023-02-06T14:10:42.094Z,5.57
2023-02-06T14:13:15.115Z,5.93
2023-02-06T14:16:01.933Z,6.35
2023-02-06T14:18:57.890Z,5.80
2023-02-06T14:21:37.532Z,5.82
2023-02-06T14:24:23.119Z,5.68
2023-02-06T14:27:05.090Z,5.57
2023-02-06T14:30:01.027Z,6.43
2023-02-06T14:32:47.744Z,6.72
2023-02-06T14:35:26.678Z,7.68
2023-02-06T14:37:59.791Z,8.10
2023-02-06T14:40:34.583Z,9.13
2023-02-06T14:43:13.870Z,8.88
2023-02-06T14:45:44.022Z,9.27
2023-02-06T14:48:32.565Z,6.70
2023-02-06T14:50:59.628Z,7.55
2023-02-06T14:53:36.432Z,7.47
2023-02-06T14:56:13.396Z,8.27
2023-02-06T14:58:41.943Z,8.13
2023-02-06T15:01:17.898Z,7.72
2023-02-06T15:03:47.296Z,7.65
2023-02-06T15:06:33.324Z,7.00
2023-02-06T15:09:01.103Z,7.85
2023-02-06T15:11:32.705Z,8.50
2023-02-06T15:14:06.517Z,6.83
2023-02-06T15:16:46.585Z,7.22
2023-02-06T15:19:17.526Z,5.80
2023-02-06T15:21:44.602Z,6.80
2023-02-06T15:24:37.452Z,6.57
2023-02-06T15:27:35.296Z,6.43
2023-02-06T15:30:12.798Z,6.82
2023-02-06T15:32:40.578Z,7.25
2023-02-06T15:35:22.686Z,7.85
2023-02-06T15:37:50.763Z,6.60
2023-02-06T15:40:26.669Z,8.18
2023-02-06T15:42:57.015Z,9.15
2023-02-06T15:45:39.094Z,8.43
2023-02-06T15:48:27.947Z,8.20
2023-02-06T15:51:20.757Z,8.52
2023-02-06T15:53:49.548Z,10.85
2023-02-06T15:56:33.265Z,8.00
2023-02-06T15:59:06.175Z,9.63
2023-02-06T16:01:38.654Z,8.95
2023-02-06T16:04:24.171Z,9.27
2023-02-06T16:07:12.888Z,8.10
2023-02-06T16:09:49.611Z,7.57
2023-02-06T16:12:17.789Z,8.77
2023-02-06T16:14:57.106Z,9.05
2023-02-06T16:17:41.205Z,9.05
2023-02-06T16:20:42.367Z,9.05
2023-02-06T16:23:18.315Z,9.43
2023-02-06T16:25:46.798Z,9.88
2023-02-06T16:28:27.183Z,7.88
2023-02-06T16:30:58.504Z,8.77
2023-02-06T16:33:39.556Z,9.27
2023-02-06T16:36:06.968Z,8.55
2023-02-06T16:38:33.931Z,9.82
2023-02-06T16:41:00.837Z,9.15
2023-02-06T16:43:29.843Z,10.05
2023-02-06T16:46:02.100Z,9.90
2023-02-06T16:48:29.300Z,8.80
2023-02-06T16:50:56.276Z,10.27
2023-02-06T16:53:25.349Z,9.55
2023-02-06T16:55:52.536Z,10.85
2023-02-06T16:58:23.029Z,10.05
2023-02-06T17:00:50.587Z,9.15
2023-02-06T17:03:18.133Z,8.95
2023-02-06T17:05:48.096Z,9.38
2023-02-06T17:08:23.148Z,8.85
2023-02-06T17:10:53.390Z,9.82
2023-02-06T17:13:23.414Z,10.30
2023-02-06T17:15:54.470Z,9.68
2023-02-06T17:18:22.566Z,10.95
2023-02-06T17:20:52.749Z,10.20
2023-02-06T17:23:20.329Z,10.00
2023-02-06T17:25:47.256Z,10.30
2023-02-06T17:28:17.412Z,9.40
2023-02-06T17:30:45.628Z,9.48
2023-02-06T17:33:12.804Z,8.80
2023-02-06T17:35:39.781Z,8.70
2023-02-06T17:38:08.677Z,9.63
2023-02-06T17:40:40.773Z,9.13
2023-02-06T17:43:08.093Z,9.60
2023-02-06T17:45:40.473Z,10.77
2023-02-06T17:48:07.803Z,9.88
2023-02-06T17:50:37.576Z,10.07
2023-02-06T17:53:06.106Z,9.57
2023-02-06T17:55:35.408Z,9.55
2023-02-06T17:58:03.020Z,12.20
2023-02-06T18:00:30.266Z,14.27
2023-02-06T18:02:59.334Z,13.45
2023-02-06T18:05:26.798Z,11.73
2023-02-06T18:07:53.888Z,10.48
2023-02-06T18:10:22.954Z,9.65
2023-02-06T18:12:52.613Z,10.50
2023-02-06T18:15:19.883Z,12.88
2023-02-06T18:17:46.854Z,12.52
2023-02-06T18:20:15.325Z,12.00
2023-02-06T18:22:42.560Z,11.60
2023-02-06T18:25:12.456Z,11.63
2023-02-06T18:27:41.564Z,13.55
2023-02-06T18:30:09.751Z,16.45
2023-02-06T18:32:38.118Z,15.07
2023-02-06T18:35:06.066Z,14.60
2023-02-06T18:37:33.105Z,13.10
2023-02-06T18:40:03.120Z,13.25
2023-02-06T18:42:48.716Z,19.45
2023-02-06T18:45:15.606Z,28.20
2023-02-06T18:47:42.522Z,20.48
2023-02-06T18:50:11.513Z,16.92
2023-02-06T18:52:39.461Z,16.27
2023-02-06T18:55:08.228Z,16.52
2023-02-06T18:57:36.402Z,18.08
2023-02-06T19:00:05.870Z,16.35
2023-02-06T19:02:33.217Z,16.60
2023-02-06T19:05:00.210Z,16.20
2023-02-06T19:07:27.796Z,14.88
2023-02-06T19:09:59.318Z,14.30
2023-02-06T19:12:28.586Z,14.32
2023-02-06T19:15:02.533Z,13.48
2023-02-06T19:17:29.388Z,13.45
2023-02-06T19:19:56.610Z,12.85
2023-02-06T19:22:23.814Z,13.75
2023-02-06T19:24:54.044Z,14.00
2023-02-06T19:27:26.144Z,13.48
2023-02-06T19:29:53.125Z,12.85
2023-02-06T19:32:20.063Z,14.93
2023-02-06T19:34:47.042Z,14.75
2023-02-06T19:37:14.125Z,13.32
2023-02-06T19:39:43.145Z,14.32
2023-02-06T19:42:10.862Z,14.32
2023-02-06T19:44:37.963Z,13.98
2023-02-06T19:47:04.843Z,14.10
2023-02-06T19:49:32.067Z,15.05
2023-02-06T19:51:59.376Z,14.57
2023-02-06T19:54:26.675Z,14.05
2023-02-06T19:56:54.129Z,14.77
2023-02-06T19:59:24.056Z,15.13
2023-02-06T20:01:54.034Z,14.10
2023-02-06T20:04:23.942Z,14.00
2023-02-06T20:06:51.350Z,15.63
2023-02-06T20:09:21.699Z,13.98
2023-02-06T20:11:49.536Z,15.32
2023-02-06T20:14:17.541Z,16.48
2023-02-06T20:16:45.879Z,15.90
2023-02-06T20:19:18.928Z,15.20
2023-02-06T20:21:49.027Z,17.30
2023-02-06T20:24:20.737Z,15.48
2023-02-06T20:26:48.716Z,14.20
2023-02-06T20:29:36.945Z,14.23
2023-02-06T20:32:05.530Z,14.07
2023-02-06T20:34:32.975Z,15.05
2023-02-06T20:37:00.135Z,15.38
2023-02-06T20:39:27.716Z,14.50
2023-02-06T20:41:54.840Z,13.57
2023-02-06T20:44:21.980Z,13.30
2023-02-06T20:46:48.973Z,14.27
2023-02-06T20:49:25.361Z,14.10
2023-02-06T20:51:52.603Z,14.15
2023-02-06T20:54:21.015Z,14.07
2023-02-06T20:56:48.005Z,13.30
2023-02-06T20:59:19.586Z,14.20
2023-02-06T21:01:46.876Z,15.25
2023-02-06T21:04:15.365Z,14.95
2023-02-06T21:06:43.186Z,12.35
2023-02-06T21:09:11.076Z,14.15
2023-02-06T21:11:41.813Z,14.82
2023-02-06T21:14:09.062Z,13.15
2023-02-06T21:16:37.905Z,14.73
2023-02-06T21:19:07.193Z,13.95
2023-02-06T21:21:38.008Z,14.55
2023-02-06T21:24:05.287Z,13.00
2023-02-06T21:26:32.797Z,13.68
2023-02-06T21:29:00.200Z,14.55
2023-02-06T21:31:37.965Z,15.90
2023-02-06T21:34:20.472Z,14.48
2023-02-06T21:36:48.808Z,14.63
2023-02-06T21:39:21.619Z,14.57
2023-02-06T21:41:51.763Z,15.45
2023-02-06T21:44:18.748Z,14.80
2023-02-06T21:46:45.744Z,15.73
2023-02-06T21:49:13.251Z,15.43
2023-02-06T21:51:40.257Z,15.65
